Muscatine, IA

7:53 PM CST on December 14, 2017 (GMT -0600)
Muscatine Municipal

Weather History for KMUT - February, 2014

Change the Weather History Date:

Monday, February 24, 2014

  Actual Average Record
Temperature  
Mean Temperature 19 °F -  
Max Temperature 24 °F 40 °F 73 °F (2002)
Min Temperature 14 °F 22 °F -9 °F (1993)
Degree Days  
Heating Degree Days 46    
Moisture  
Dew Point 9 °F    
Average Humidity 64    
Maximum Humidity 86    
Minimum Humidity 46    
Precipitation  
Precipitation 0.00 in - - ()
Sea Level Pressure  
Sea Level Pressure 30.34 in    
Wind  
Wind Speed 9 mph (NW)    
Max Wind Speed 13 mph    
Max Gust Speed 20 mph    
Visibility 9 miles    
Events Snow    
Averages and records for this station are not official NWS values.
T = Trace of Precipitation, MM = Missing Value Source: NWS Daily Summary

Daily Weather History Graph

Daily Weather History Graph

Search for Another Location

Airport or City:

Trip Planner

Search our weather history database for the weather conditions in past years. The results will help you decide how hot, cold, wet, or windy it might be!

Date:

Astronomy

Feb. 24, 2014 Rise Set
Actual Time 6:46 AM CST 5:49 PM CST
Civil Twilight 6:18 AM CST 6:17 PM CST
Nautical Twilight 5:46 AM CST 6:49 PM CST
Astronomical Twilight 5:14 AM CST 7:21 PM CST
Moon 2:47 AM CST (2/24) 12:48 PM CST (2/24)
Length of Visible Light 11h 58m
Length of Day
11h 02m
Waning Crescent, 28% of the Moon is Illuminated
Feb 24
Waning Crescent
Mar 1
New
Mar 8
First Quarter
Mar 16
Full
Mar 23
Last Quarter

Hourly Weather History & Observations

Time (CST) Temp. Windchill Dew Point Humidity Pressure Visibility Wind Dir Wind Speed Gust Speed Precip Events Conditions
12:15 AM 19.4 °F 7.2 °F 12.2 °F 74% 30.34 in 10.0 mi West 11.5 mph - N/A   Clear
12:35 AM 19.4 °F 8.6 °F 10.4 °F 68% 30.35 in 10.0 mi West 9.2 mph - N/A   Clear
12:55 AM 19.4 °F 7.9 °F 10.4 °F 68% 30.34 in 10.0 mi West 10.4 mph - N/A   Clear
1:15 AM 19.4 °F 9.5 °F 10.4 °F 68% 30.34 in 10.0 mi WNW 8.1 mph - N/A   Clear
1:35 AM 17.6 °F 9.3 °F 10.4 °F 73% 30.33 in 10.0 mi WNW 5.8 mph - N/A   Clear
1:55 AM 17.6 °F 7.3 °F 12.2 °F 79% 30.34 in 10.0 mi WNW 8.1 mph - N/A   Clear
2:15 AM 17.6 °F 7.3 °F 10.4 °F 73% 30.34 in 10.0 mi WNW 8.1 mph - N/A   Clear
2:35 AM 17.6 °F 7.3 °F 10.4 °F 73% 30.33 in 10.0 mi West 8.1 mph - N/A   Clear
2:55 AM 17.6 °F 7.3 °F 10.4 °F 73% 30.33 in 10.0 mi WNW 8.1 mph - N/A   Clear
3:15 AM 17.6 °F 6.4 °F 10.4 °F 73% 30.32 in 10.0 mi WNW 9.2 mph - N/A   Clear
3:35 AM 17.6 °F 5.7 °F 10.4 °F 73% 30.34 in 10.0 mi WNW 10.4 mph - N/A   Clear
3:55 AM 17.6 °F 6.4 °F 10.4 °F 73% 30.35 in 10.0 mi WNW 9.2 mph - N/A   Clear
4:15 AM 15.8 °F 5.1 °F 10.4 °F 79% 30.35 in 10.0 mi NW 8.1 mph - N/A   Clear
4:35 AM 15.8 °F 7.2 °F 10.4 °F 79% 30.34 in 10.0 mi NW 5.8 mph - N/A   Clear
4:55 AM 15.8 °F 7.2 °F 10.4 °F 79% 30.35 in 10.0 mi WNW 5.8 mph - N/A   Clear
5:15 AM 15.8 °F 7.2 °F 10.4 °F 79% 30.34 in 10.0 mi WNW 5.8 mph - N/A   Clear
5:35 AM 15.8 °F 7.2 °F 10.4 °F 79% 30.34 in 10.0 mi West 5.8 mph - N/A   Clear
5:55 AM 15.8 °F 6.1 °F 8.6 °F 73% 30.33 in 10.0 mi NW 6.9 mph - N/A   Clear
6:15 AM 15.8 °F 6.1 °F 8.6 °F 73% 30.35 in 10.0 mi WNW 6.9 mph - N/A   Clear
6:35 AM 15.8 °F 6.1 °F 8.6 °F 73% 30.35 in 10.0 mi West 6.9 mph - N/A   Clear
6:55 AM 14.0 °F 2.9 °F 8.6 °F 79% 30.36 in 10.0 mi WNW 8.1 mph - N/A   Clear
7:15 AM 15.8 °F 7.2 °F 8.6 °F 73% 30.36 in 10.0 mi WNW 5.8 mph - N/A   Clear
7:35 AM 15.8 °F 6.1 °F 8.6 °F 73% 30.36 in 10.0 mi West 6.9 mph - N/A   Clear
7:55 AM 15.8 °F 3.4 °F 8.6 °F 73% 30.38 in 10.0 mi West 10.4 mph - N/A   Clear
8:15 AM 17.6 °F 5.0 °F 6.8 °F 63% 30.39 in 10.0 mi WNW 11.5 mph - N/A   Clear
8:35 AM 17.6 °F 5.0 °F 6.8 °F 63% 30.39 in 10.0 mi WNW 11.5 mph - N/A   Clear
8:55 AM 17.6 °F 5.7 °F 6.8 °F 63% 30.39 in 10.0 mi NW 10.4 mph - N/A   Clear
9:15 AM 17.6 °F 5.0 °F 6.8 °F 63% 30.40 in 10.0 mi WNW 11.5 mph - N/A   Clear
9:35 AM 19.4 °F 6.6 °F 5.0 °F 54% 30.41 in 10.0 mi NW 12.7 mph 19.6 mph N/A   Clear
9:55 AM 19.4 °F 7.9 °F 6.8 °F 58% 30.40 in 10.0 mi NW 10.4 mph - N/A   Clear
10:15 AM 19.4 °F 7.9 °F 6.8 °F 58% 30.40 in 10.0 mi WNW 10.4 mph - N/A   Partly Cloudy
10:35 AM 19.4 °F 9.5 °F 6.8 °F 58% 30.39 in 10.0 mi WNW 8.1 mph 15.0 mph N/A   Clear
10:55 AM 21.2 °F 10.9 °F 6.8 °F 54% 30.39 in 10.0 mi WNW 9.2 mph - N/A   Clear
11:15 AM 23.0 °F 12.4 °F 8.6 °F 54% 30.40 in 10.0 mi WNW 10.4 mph - N/A   Mostly Cloudy
11:35 AM 23.0 °F 13.1 °F 6.8 °F 50% 30.39 in 10.0 mi WNW 9.2 mph - N/A   Overcast
11:50 AM 23.0 °F 11.7 °F 6.8 °F 50% 30.39 in 10.0 mi WNW 11.5 mph - N/A   Overcast
12:15 PM 23.0 °F 13.9 °F 6.8 °F 50% 30.37 in 10.0 mi West 8.1 mph - N/A   Mostly Cloudy
12:35 PM 23.0 °F 14.7 °F 6.8 °F 50% 30.36 in 10.0 mi NNW 6.9 mph 13.8 mph N/A   Partly Cloudy
12:55 PM 24.8 °F 14.6 °F 6.8 °F 46% 30.35 in 10.0 mi NNW 10.4 mph - N/A   Mostly Cloudy
1:15 PM 24.8 °F 14.6 °F 6.8 °F 46% 30.34 in 10.0 mi NW 10.4 mph - N/A   Mostly Cloudy
1:35 PM 24.8 °F 14.6 °F 6.8 °F 46% 30.33 in 10.0 mi NNW 10.4 mph - N/A   Partly Cloudy
1:55 PM 24.8 °F 16.1 °F 8.6 °F 50% 30.34 in 10.0 mi WNW 8.1 mph - N/A   Clear
2:15 PM 24.8 °F 15.3 °F 8.6 °F 50% 30.34 in 10.0 mi WNW 9.2 mph - N/A   Clear
2:35 PM 24.8 °F 14.6 °F 6.8 °F 46% 30.34 in 10.0 mi WNW 10.4 mph - N/A   Partly Cloudy
2:55 PM 24.8 °F 15.3 °F 6.8 °F 46% 30.33 in 10.0 mi West 9.2 mph - N/A   Mostly Cloudy
3:15 PM 24.8 °F 16.9 °F 6.8 °F 46% 30.32 in 10.0 mi WNW 6.9 mph - N/A   Overcast
3:35 PM 24.8 °F 16.9 °F 8.6 °F 50% 30.32 in 10.0 mi WNW 6.9 mph - N/A   Overcast
3:55 PM 24.8 °F 15.3 °F 8.6 °F 50% 30.32 in 10.0 mi West 9.2 mph - N/A   Overcast
4:15 PM 24.8 °F 14.6 °F 10.4 °F 54% 30.31 in 10.0 mi NW 10.4 mph - N/A   Overcast
4:30 PM 23.0 °F 13.9 °F 8.6 °F 54% 30.31 in 10.0 mi NNW 8.1 mph - N/A   Overcast
4:55 PM 23.0 °F 13.9 °F 8.6 °F 54% 30.29 in 10.0 mi NW 8.1 mph - N/A   Overcast
5:15 PM 23.0 °F 13.9 °F 6.8 °F 50% 30.29 in 10.0 mi WNW 8.1 mph - N/A   Overcast
5:35 PM 21.2 °F 10.9 °F 6.8 °F 54% 30.29 in 10.0 mi NW 9.2 mph - N/A   Overcast
5:55 PM 21.2 °F 12.6 °F 6.8 °F 54% 30.29 in 10.0 mi NW 6.9 mph - N/A   Overcast
6:15 PM 21.2 °F 11.7 °F 8.6 °F 58% 30.30 in 10.0 mi NW 8.1 mph - N/A   Overcast
6:35 PM 21.2 °F 10.9 °F 8.6 °F 58% 30.30 in 10.0 mi NW 9.2 mph - N/A   Overcast
6:55 PM 21.2 °F 11.7 °F 8.6 °F 58% 30.30 in 10.0 mi NW 8.1 mph - N/A   Overcast
7:15 PM 21.2 °F 10.1 °F 8.6 °F 58% 30.31 in 10.0 mi NNW 10.4 mph - N/A   Overcast
7:35 PM 21.2 °F 10.9 °F 8.6 °F 58% 30.31 in 10.0 mi NW 9.2 mph - N/A   Overcast
7:55 PM 21.2 °F 11.7 °F 8.6 °F 58% 30.30 in 10.0 mi NW 8.1 mph - N/A   Overcast
8:15 PM 21.2 °F 14.9 °F 8.6 °F 58% 30.29 in 10.0 mi WNW 4.6 mph - N/A   Overcast
8:35 PM 21.2 °F 10.1 °F 8.6 °F 58% 30.31 in 10.0 mi NW 10.4 mph - N/A   Overcast
8:55 PM 19.4 °F 8.6 °F 5.0 °F 54% 30.31 in 10.0 mi NW 9.2 mph - N/A   Overcast
9:15 PM 19.4 °F 9.5 °F 6.8 °F 58% 30.30 in 10.0 mi NNW 8.1 mph - N/A   Overcast
9:35 PM 19.4 °F 8.6 °F 10.4 °F 68% 30.31 in 8.0 mi NNW 9.2 mph - N/A Snow Light Snow
9:55 PM 19.4 °F 11.5 °F 12.2 °F 74% 30.31 in 9.0 mi WNW 5.8 mph - N/A   Overcast
10:15 PM 19.4 °F 11.5 °F 14.0 °F 80% 30.30 in 3.0 mi NW 5.8 mph - N/A Snow Light Snow
10:35 PM 17.6 °F 8.2 °F 14.0 °F 86% 30.31 in 1.5 mi NNW 6.9 mph - N/A Snow Light Snow
10:55 PM 17.6 °F 6.4 °F 14.0 °F 86% 30.33 in 2.0 mi NNW 9.2 mph - N/A Snow Light Snow
11:15 PM 17.6 °F 5.7 °F 14.0 °F 86% 30.33 in 1.2 mi NNW 10.4 mph - N/A Snow Light Snow
11:35 PM 17.6 °F 8.2 °F 14.0 °F 86% 30.32 in 1.5 mi NNW 6.9 mph - N/A Snow Light Snow
11:55 PM 17.6 °F 8.2 °F 14.0 °F 86% 30.33 in 5.0 mi NW 6.9 mph - N/A Snow Light Snow